Time;durP1;ratioP1;P1;durP2;ratioP2;P2;SDS_P1;SDS_P2;PMS_P1;PMS_P2;Temp;Humidity;BMP_temperature;BMP_pressure;BME280_temperature;BME280_humidity;BME280_pressure;Samples;Min_cycle;Max_cycle;Signal;HPM_P1;HPM_P2
2021/11/13 00:01:58;;;;;;;7.05;3.10;;;9.00;90.60;;;;;;5114344;28;20051;-78
2021/11/13 00:04:24;;;;;;;5.88;3.22;;;9.00;90.60;;;;;;5096013;28;20035;-78
2021/11/13 00:06:49;;;;;;;5.70;3.30;;;9.00;90.60;;;;;;5114098;28;20462;-78
2021/11/13 00:09:16;;;;;;;6.60;3.78;;;9.00;90.60;;;;;;5114123;28;20047;-80
2021/11/13 00:11:42;;;;;;;5.63;3.20;;;9.00;90.60;;;;;;5095666;28;20039;-79
2021/11/13 00:14:15;;;;;;;6.05;3.42;;;9.00;90.60;;;;;;5078895;28;20047;-78
2021/11/13 00:16:41;;;;;;;5.80;3.38;;;9.00;90.70;;;;;;5095694;28;20051;-78
2021/11/13 00:19:07;;;;;;;6.55;3.80;;;9.00;90.70;;;;;;5113961;28;20035;-78
2021/11/13 00:21:32;;;;;;;6.38;3.75;;;9.00;90.70;;;;;;5115049;28;20495;-78
2021/11/13 00:23:59;;;;;;;7.15;4.28;;;9.00;90.70;;;;;;5095465;28;20110;-78
2021/11/13 00:26:24;;;;;;;7.63;4.47;;;9.00;90.70;;;;;;5113956;28;20047;-78
2021/11/13 00:28:50;;;;;;;8.85;4.88;;;9.10;90.80;;;;;;5094371;28;20066;-78
2021/11/13 00:31:16;;;;;;;8.00;5.13;;;9.00;90.80;;;;;;5113669;28;20040;-79
2021/11/13 00:33:41;;;;;;;7.03;4.75;;;9.00;90.80;;;;;;5113453;28;20374;-79
2021/11/13 00:36:07;;;;;;;8.18;4.72;;;9.10;90.80;;;;;;5095385;28;20478;-78
2021/11/13 00:38:33;;;;;;;5.95;3.85;;;9.10;90.80;;;;;;5113474;28;20040;-78
2021/11/13 00:40:59;;;;;;;9.30;5.15;;;9.10;90.90;;;;;;5095194;28;20042;-79
2021/11/13 00:43:26;;;;;;;8.18;5.05;;;9.10;90.90;;;;;;5095564;28;20031;-79
2021/11/13 00:45:52;;;;;;;6.82;4.35;;;9.10;90.90;;;;;;5114077;28;20043;-79
2021/11/13 00:48:18;;;;;;;6.53;4.28;;;9.00;90.90;;;;;;5113610;28;20043;-79
2021/11/13 00:50:44;;;;;;;7.30;4.57;;;9.10;91.00;;;;;;5095052;28;20071;-79
2021/11/13 00:53:10;;;;;;;6.30;4.05;;;9.10;91.00;;;;;;5077905;28;20067;-79
2021/11/13 00:55:36;;;;;;;6.43;3.85;;;9.00;91.00;;;;;;5094745;28;20032;-79
2021/11/13 00:58:02;;;;;;;6.05;3.70;;;9.10;91.00;;;;;;5095109;28;20051;-79
2021/11/13 01:00:28;;;;;;;6.70;3.78;;;9.20;91.10;;;;;;5095719;28;20060;-79
2021/11/13 01:02:54;;;;;;;7.60;4.03;;;9.20;91.10;;;;;;5078188;28;20393;-80
2021/11/13 01:05:20;;;;;;;9.23;4.15;;;9.10;91.40;;;;;;5113536;28;20456;-79
2021/11/13 01:07:46;;;;;;;6.70;4.18;;;9.10;91.10;;;;;;5094507;28;20093;-79
2021/11/13 01:10:16;;;;;;;5.63;3.60;;;9.10;91.10;;;;;;5113262;28;20130;-79
2021/11/13 01:12:42;;;;;;;7.53;3.92;;;9.10;91.10;;;;;;5112967;28;20046;-80
2021/11/13 01:15:11;;;;;;;5.78;3.47;;;9.10;91.20;;;;;;5094959;28;20080;-80
2021/11/13 01:17:37;;;;;;;5.75;3.45;;;9.10;91.20;;;;;;5094849;28;20043;-80
2021/11/13 01:20:05;;;;;;;6.55;3.80;;;9.10;91.20;;;;;;5094919;28;20036;-78
2021/11/13 01:22:31;;;;;;;8.10;4.25;;;9.10;91.20;;;;;;5113647;28;20082;-79
2021/11/13 01:24:57;;;;;;;6.53;3.90;;;9.10;91.20;;;;;;5112674;28;20043;-79
2021/11/13 01:27:22;;;;;;;7.88;4.50;;;9.20;91.20;;;;;;5077626;28;20040;-79
2021/11/13 01:29:48;;;;;;;5.85;3.47;;;9.20;91.20;;;;;;5094402;28;20047;-79
2021/11/13 01:32:15;;;;;;;6.15;3.45;;;9.20;91.30;;;;;;5060941;28;20346;-79
2021/11/13 01:34:41;;;;;;;5.55;3.03;;;9.20;91.30;;;;;;5077647;28;20048;-79
2021/11/13 01:37:07;;;;;;;5.07;3.05;;;9.20;91.30;;;;;;5113156;28;20036;-79
2021/11/13 01:39:35;;;;;;;5.50;2.88;;;9.20;91.30;;;;;;5082248;28;20074;-79
2021/11/13 01:42:03;;;;;;;6.13;3.15;;;9.20;91.30;;;;;;5067740;28;20065;-79
2021/11/13 01:44:29;;;;;;;5.80;3.05;;;9.20;91.40;;;;;;5120584;28;20659;-79
2021/11/13 01:46:55;;;;;;;6.10;3.13;;;9.20;91.40;;;;;;5084597;28;20155;-80
2021/11/13 01:49:21;;;;;;;6.22;3.15;;;9.20;91.40;;;;;;5101106;28;20074;-79
2021/11/13 01:51:49;;;;;;;5.47;3.15;;;9.20;91.40;;;;;;5101012;28;20130;-80
2021/11/13 01:54:16;;;;;;;6.80;3.35;;;9.20;91.40;;;;;;5120061;28;20101;-79
2021/11/13 01:56:42;;;;;;;5.78;3.13;;;9.20;91.40;;;;;;5100864;28;20527;-79
2021/11/13 01:59:09;;;;;;;5.38;2.95;;;9.20;91.40;;;;;;5101118;28;20031;-79
2021/11/13 02:01:36;;;;;;;7.90;3.33;;;9.30;91.50;;;;;;5102694;28;20044;-78
2021/11/13 02:04:03;;;;;;;4.97;3.05;;;9.30;91.40;;;;;;5084364;28;20028;-78
2021/11/13 02:06:30;;;;;;;6.53;3.33;;;9.30;91.40;;;;;;5119229;28;20093;-78
2021/11/13 02:08:56;;;;;;;4.70;2.85;;;9.30;91.40;;;;;;5119032;28;20441;-79
2021/11/13 02:11:26;;;;;;;4.90;2.72;;;9.30;91.40;;;;;;5082667;28;20040;-79
2021/11/13 02:13:54;;;;;;;5.00;2.78;;;9.30;91.50;;;;;;5084393;28;20130;-79
2021/11/13 02:16:19;;;;;;;4.90;2.70;;;9.30;91.50;;;;;;5100386;28;20040;-78
2021/11/13 02:18:46;;;;;;;5.03;2.88;;;9.30;91.50;;;;;;5103460;28;20042;-78
2021/11/13 02:21:12;;;;;;;4.05;2.65;;;9.40;91.50;;;;;;5101575;28;20476;-78
2021/11/13 02:23:40;;;;;;;4.45;2.65;;;9.40;91.50;;;;;;5098513;28;20047;-79
2021/11/13 02:26:06;;;;;;;4.43;2.58;;;9.40;91.50;;;;;;5123930;28;20043;-78
2021/11/13 02:28:35;;;;;;;5.30;2.92;;;9.40;91.50;;;;;;5119283;28;20051;-78
2021/11/13 02:31:04;;;;;;;4.25;2.60;;;9.40;91.60;;;;;;5119380;28;20118;-79
2021/11/13 02:33:31;;;;;;;4.93;3.05;;;9.40;91.60;;;;;;5119819;28;20046;-78
2021/11/13 02:35:58;;;;;;;5.30;2.85;;;9.40;91.60;;;;;;5102357;28;20442;-78
2021/11/13 02:38:29;;;;;;;5.55;3.25;;;9.40;91.60;;;;;;5084677;28;20040;-78
2021/11/13 02:40:56;;;;;;;;;;;9.40;91.60;;;;;;5120548;28;20090;-78
2021/11/13 02:43:24;;;;;;;5.50;2.90;;;9.50;91.60;;;;;;5118559;27;19912;-78
2021/11/13 02:45:52;;;;;;;4.90;2.88;;;9.40;91.50;;;;;;5101049;28;20067;-78
2021/11/13 02:48:19;;;;;;;5.30;3.00;;;9.60;91.60;;;;;;5084050;28;20043;-78
2021/11/13 02:50:45;;;;;;;6.43;3.35;;;9.40;91.60;;;;;;5116423;28;20096;-78
2021/11/13 02:53:15;;;;;;;5.20;3.10;;;9.50;91.60;;;;;;5096819;28;20031;-78
2021/11/13 02:55:41;;;;;;;4.82;2.90;;;9.50;91.60;;;;;;5097244;28;20127;-78
2021/11/13 02:58:08;;;;;;;5.80;2.97;;;9.50;91.60;;;;;;5080163;28;20047;-78
2021/11/13 03:00:35;;;;;;;6.22;3.53;;;9.40;91.60;;;;;;5116477;28;20044;-78
2021/11/13 03:03:02;;;;;;;6.10;3.13;;;9.70;91.70;;;;;;5097311;28;20044;-78
2021/11/13 03:05:31;;;;;;;5.25;3.03;;;9.60;91.60;;;;;;5079847;28;20046;-78
2021/11/13 03:07:59;;;;;;;5.97;3.25;;;9.60;91.70;;;;;;5095287;28;20504;-78
2021/11/13 03:10:28;;;;;;;5.00;2.90;;;9.60;91.70;;;;;;5097751;28;20040;-78
2021/11/13 03:12:54;;;;;;;5.78;3.20;;;9.60;91.70;;;;;;5064219;28;20079;-78
2021/11/13 03:15:22;;;;;;;6.55;3.65;;;9.60;91.70;;;;;;5098497;28;20096;-78
2021/11/13 03:17:49;;;;;;;6.38;3.50;;;9.60;91.70;;;;;;5098358;28;20040;-78
2021/11/13 03:20:19;;;;;;;3.92;2.63;;;9.70;91.70;;;;;;5080276;28;20063;-79
2021/11/13 03:22:45;;;;;;;4.95;2.83;;;9.60;91.70;;;;;;5081156;28;20470;-79
2021/11/13 03:25:17;;;;;;;5.00;3.10;;;9.70;91.70;;;;;;5116160;28;20036;-78
2021/11/13 03:27:46;;;;;;;4.40;2.70;;;9.70;91.70;;;;;;5096875;28;20127;-78
2021/11/13 03:30:13;;;;;;;5.40;3.20;;;9.70;91.70;;;;;;5081530;28;20036;-78
2021/11/13 03:32:39;;;;;;;6.15;3.30;;;9.70;91.80;;;;;;5080866;28;20040;-79
2021/11/13 03:35:05;;;;;;;5.13;3.10;;;9.70;91.80;;;;;;5097289;28;20066;-78
2021/11/13 03:37:32;;;;;;;5.88;3.58;;;9.80;91.80;;;;;;5097740;28;20123;-79
2021/11/13 03:39:58;;;;;;;5.38;3.15;;;9.80;91.80;;;;;;5097139;28;20134;-78
2021/11/13 03:42:29;;;;;;;6.20;3.13;;;9.70;91.80;;;;;;5096448;28;20115;-78
2021/11/13 03:44:56;;;;;;;4.38;2.88;;;9.70;91.80;;;;;;5115989;28;20642;-78
2021/11/13 03:47:22;;;;;;;4.75;2.72;;;9.90;92.10;;;;;;5114881;28;20039;-79
2021/11/13 03:49:48;;;;;;;5.55;3.08;;;9.80;91.80;;;;;;5080970;28;20618;-78
2021/11/13 03:52:13;;;;;;;4.90;2.95;;;9.80;91.80;;;;;;5114158;28;20481;-78
2021/11/13 03:54:39;;;;;;;4.63;2.70;;;9.80;91.90;;;;;;5078839;28;20550;-78
2021/11/13 03:57:05;;;;;;;6.97;3.45;;;9.80;91.90;;;;;;5081103;28;20474;-78
2021/11/13 03:59:31;;;;;;;6.35;3.10;;;9.80;91.90;;;;;;5079565;28;20104;-78
2021/11/13 04:01:57;;;;;;;5.82;3.42;;;9.80;91.90;;;;;;5114813;28;20489;-78
2021/11/13 04:04:23;;;;;;;6.05;3.38;;;9.80;91.90;;;;;;5079759;28;20554;-78
2021/11/13 04:06:49;;;;;;;6.25;3.45;;;9.80;91.90;;;;;;5079026;28;20047;-78
2021/11/13 04:09:15;;;;;;;6.80;3.30;;;9.90;91.90;;;;;;5115094;28;20039;-78
2021/11/13 04:11:41;;;;;;;4.10;2.67;;;9.90;91.90;;;;;;5113743;28;20040;-78
2021/11/13 04:14:07;;;;;;;4.95;2.65;;;9.90;91.90;;;;;;5078961;28;20062;-78
2021/11/13 04:16:32;;;;;;;4.50;2.72;;;9.90;91.90;;;;;;5078302;28;20047;-78
2021/11/13 04:18:58;;;;;;;5.18;2.78;;;9.90;91.90;;;;;;5079084;28;20055;-78
2021/11/13 04:21:24;;;;;;;5.20;2.88;;;9.90;91.90;;;;;;5095637;28;20036;-78
2021/11/13 04:23:49;;;;;;;3.85;2.50;;;10.00;92.00;;;;;;5095543;28;20031;-78
2021/11/13 04:26:15;;;;;;;4.47;2.40;;;10.00;92.00;;;;;;5095403;28;20035;-78
2021/11/13 04:28:41;;;;;;;4.28;2.47;;;10.00;92.00;;;;;;5078430;28;20126;-79
2021/11/13 04:31:06;;;;;;;4.18;2.85;;;10.00;92.00;;;;;;5095591;28;20039;-79
2021/11/13 04:33:34;;;;;;;4.70;2.70;;;10.00;92.00;;;;;;5113510;28;20044;-78
2021/11/13 04:36:07;;;;;;;4.68;3.05;;;10.00;92.00;;;;;;5062606;28;20047;-78
2021/11/13 04:38:33;;;;;;;4.40;2.75;;;10.00;92.00;;;;;;5096011;28;20048;-79
2021/11/13 04:41:01;;;;;;;4.50;2.83;;;10.00;92.00;;;;;;5061523;28;20031;-78
2021/11/13 04:43:27;;;;;;;3.88;2.45;;;10.10;92.00;;;;;;5096051;28;20036;-78
2021/11/13 04:45:53;;;;;;;4.88;2.63;;;10.10;92.00;;;;;;5114513;28;20538;-78
2021/11/13 04:48:19;;;;;;;4.55;2.60;;;10.10;92.00;;;;;;5061627;28;20040;-78
2021/11/13 04:50:45;;;;;;;3.65;2.25;;;10.10;92.10;;;;;;5061244;28;20080;-78
2021/11/13 04:53:10;;;;;;;3.70;2.10;;;10.10;92.10;;;;;;5094809;28;20119;-78
2021/11/13 04:55:37;;;;;;;4.10;2.40;;;10.10;92.10;;;;;;5078156;28;20063;-78
2021/11/13 04:58:03;;;;;;;3.85;2.42;;;10.00;92.10;;;;;;5115355;28;20161;-78
2021/11/13 05:00:31;;;;;;;4.70;2.70;;;10.10;92.10;;;;;;5095728;28;20040;-78
2021/11/13 05:02:57;;;;;;;3.85;2.17;;;10.10;92.10;;;;;;5113199;28;20443;-79
2021/11/13 05:05:24;;;;;;;4.13;2.50;;;10.10;92.10;;;;;;5095700;28;20084;-79
2021/11/13 05:07:50;;;;;;;3.65;2.25;;;10.10;92.10;;;;;;5079892;28;20067;-79
2021/11/13 05:10:16;;;;;;;4.22;2.38;;;10.10;92.10;;;;;;5098275;28;20051;-79
2021/11/13 05:12:43;;;;;;;3.30;2.13;;;10.10;92.10;;;;;;5099741;28;20044;-80
2021/11/13 05:15:10;;;;;;;4.85;2.70;;;10.10;92.10;;;;;;5081415;28;20043;-82
2021/11/13 05:17:37;;;;;;;3.72;2.05;;;10.10;92.10;;;;;;5064633;28;20043;-80
2021/11/13 05:20:07;;;;;;;3.92;2.35;;;10.10;92.10;;;;;;5098478;28;20366;-80
2021/11/13 05:22:34;;;;;;;4.33;2.20;;;10.10;92.10;;;;;;5117391;28;20040;-81
2021/11/13 05:25:00;;;;;;;2.78;1.60;;;10.10;92.10;;;;;;5115287;28;20035;-80
2021/11/13 05:27:26;;;;;;;2.95;1.85;;;10.10;92.10;;;;;;5083030;28;20477;-80
2021/11/13 05:29:52;;;;;;;3.25;2.00;;;10.10;92.20;;;;;;5081691;28;20073;-80
2021/11/13 05:32:18;;;;;;;2.50;1.73;;;10.20;92.20;;;;;;5081513;28;20071;-80
2021/11/13 05:34:43;;;;;;;3.17;1.90;;;10.20;92.20;;;;;;5115086;28;20099;-80
2021/11/13 05:37:09;;;;;;;3.13;1.80;;;10.10;92.20;;;;;;5082203;28;20048;-80
2021/11/13 05:39:36;;;;;;;1.95;1.45;;;10.10;92.20;;;;;;5083079;28;20062;-80
2021/11/13 05:42:04;;;;;;;2.72;1.55;;;10.20;92.30;;;;;;5099174;28;20039;-81
2021/11/13 05:44:30;;;;;;;2.10;1.50;;;10.20;92.30;;;;;;5065848;28;20482;-81
2021/11/13 05:46:56;;;;;;;2.88;1.80;;;10.10;92.50;;;;;;5080882;28;20515;-82
2021/11/13 05:49:22;;;;;;;3.10;1.77;;;10.20;92.30;;;;;;5098102;28;20047;-81
2021/11/13 05:51:48;;;;;;;2.13;1.52;;;10.10;92.30;;;;;;5113655;28;20110;-81
2021/11/13 05:54:14;;;;;;;2.50;1.70;;;10.20;92.30;;;;;;5116601;28;20065;-81
2021/11/13 05:56:40;;;;;;;2.72;1.40;;;10.20;92.30;;;;;;5083357;28;20118;-80
2021/11/13 05:59:05;;;;;;;2.83;1.60;;;10.20;92.30;;;;;;5114636;28;20035;-80
2021/11/13 06:01:31;;;;;;;1.90;1.27;;;10.10;92.30;;;;;;5098519;28;20051;-81
2021/11/13 06:03:57;;;;;;;2.15;1.40;;;10.20;92.30;;;;;;5097089;28;20119;-81
2021/11/13 06:06:23;;;;;;;2.95;1.92;;;10.20;92.40;;;;;;5116150;28;20131;-82
2021/11/13 06:08:49;;;;;;;3.67;2.00;;;10.20;92.40;;;;;;5115223;28;20036;-82
2021/11/13 06:11:15;;;;;;;3.50;2.00;;;10.20;92.40;;;;;;5080002;28;20043;-81
2021/11/13 06:13:41;;;;;;;2.80;1.80;;;10.10;92.40;;;;;;5095716;28;20043;-81
2021/11/13 06:16:08;;;;;;;2.78;1.80;;;10.20;92.40;;;;;;5067143;28;20070;-81
2021/11/13 06:18:35;;;;;;;3.22;1.77;;;10.30;92.40;;;;;;5084320;28;20092;-81
2021/11/13 06:21:06;;;;;;;3.35;1.90;;;10.20;92.40;;;;;;5079654;28;20048;-81
2021/11/13 06:23:34;;;;;;;2.42;1.67;;;10.20;92.40;;;;;;5055615;28;20033;-81
2021/11/13 06:26:00;;;;;;;2.92;1.70;;;10.20;92.40;;;;;;5038661;28;20041;-80
2021/11/13 06:28:26;;;;;;;2.72;1.73;;;10.20;92.40;;;;;;5039937;28;20068;-80
2021/11/13 06:30:52;;;;;;;1.88;1.45;;;10.20;92.40;;;;;;5022398;28;20103;-80
2021/11/13 06:33:18;;;;;;;2.40;1.42;;;10.10;92.40;;;;;;5055648;28;20573;-81
2021/11/13 06:35:44;;;;;;;2.40;1.52;;;10.30;92.50;;;;;;5038164;28;20049;-81
2021/11/13 06:38:10;;;;;;;2.10;1.50;;;10.20;92.40;;;;;;5056462;28;20600;-81
2021/11/13 06:40:36;;;;;;;2.60;1.55;;;10.20;92.40;;;;;;5054998;28;20132;-80
2021/11/13 06:43:02;;;;;;;2.25;1.40;;;10.20;92.50;;;;;;5022299;28;20048;-81
2021/11/13 06:45:27;;;;;;;2.03;1.42;;;10.20;92.50;;;;;;5038910;28;20380;-81
2021/11/13 06:47:53;;;;;;;1.50;1.15;;;10.20;92.50;;;;;;5022280;28;20106;-81
2021/11/13 06:50:22;;;;;;;2.60;1.75;;;10.20;92.50;;;;;;5038612;28;20056;-81
2021/11/13 06:52:48;;;;;;;1.75;1.30;;;10.20;92.50;;;;;;5037593;28;20056;-81
2021/11/13 06:55:14;;;;;;;2.55;1.35;;;10.20;92.50;;;;;;5104261;28;20512;-80
2021/11/13 06:57:41;;;;;;;2.63;1.60;;;10.20;92.50;;;;;;5099739;28;20495;-82
2021/11/13 07:00:10;;;;;;;2.13;1.42;;;10.20;92.50;;;;;;5099053;28;20046;-82
2021/11/13 07:02:36;;;;;;;2.10;1.45;;;10.20;92.30;;;;;;5098922;28;20493;-81
2021/11/13 07:05:03;;;;;;;1.42;1.23;;;10.20;92.60;;;;;;5082674;28;20046;-81
2021/11/13 07:07:32;;;;;;;2.00;1.40;;;10.10;92.60;;;;;;5083370;28;20485;-81
2021/11/13 07:10:00;;;;;;;2.47;1.20;;;10.10;92.60;;;;;;5118565;28;20070;-81
2021/11/13 07:12:29;;;;;;;1.88;1.42;;;10.10;92.60;;;;;;5129794;28;20039;-80
2021/11/13 07:14:56;;;;;;;2.65;1.38;;;10.10;92.70;;;;;;5088238;28;20571;-81
2021/11/13 07:17:22;;;;;;;1.65;1.30;;;10.10;92.70;;;;;;5081946;28;20036;-81
2021/11/13 07:19:50;;;;;;;2.22;1.40;;;10.10;92.60;;;;;;5098969;28;20042;-81
2021/11/13 07:22:17;;;;;;;2.20;1.55;;;10.10;92.60;;;;;;5103416;28;20040;-80
2021/11/13 07:24:46;;;;;;;2.35;1.40;;;10.10;92.60;;;;;;5093583;28;20030;-81
2021/11/13 07:27:13;;;;;;;2.35;1.40;;;10.20;92.90;;;;;;5107569;28;20471;-81
2021/11/13 07:29:47;;;;;;;1.95;1.40;;;10.10;92.60;;;;;;5098609;28;20051;-80
2021/11/13 07:32:16;;;;;;;2.15;1.42;;;10.20;92.60;;;;;;5099334;28;20485;-81
2021/11/13 07:34:42;;;;;;;1.88;1.42;;;10.20;92.60;;;;;;5080340;28;20110;-80
2021/11/13 07:37:12;;;;;;;2.17;1.30;;;10.20;92.60;;;;;;5115626;28;20083;-80
2021/11/13 07:39:46;;;;;;;2.10;1.35;;;10.30;92.60;;;;;;5076238;28;20133;-82
2021/11/13 07:42:14;;;;;;;1.90;1.38;;;10.30;92.60;;;;;;5134373;28;20047;-81
2021/11/13 07:44:40;;;;;;;1.63;1.25;;;10.50;92.60;;;;;;5137446;28;20046;-80
2021/11/13 07:47:06;;;;;;;2.00;1.33;;;10.20;92.50;;;;;;5137047;28;20055;-80
2021/11/13 07:49:32;;;;;;;2.13;1.40;;;10.30;92.60;;;;;;5092062;28;20141;-80
2021/11/13 07:51:57;;;;;;;2.40;1.50;;;10.30;92.60;;;;;;5097539;28;20032;-80
2021/11/13 07:54:23;;;;;;;1.80;1.40;;;10.40;92.60;;;;;;5079861;28;20035;-80
2021/11/13 07:56:52;;;;;;;1.80;1.30;;;10.40;92.60;;;;;;5110009;28;20046;-80
2021/11/13 07:59:21;;;;;;;1.33;1.10;;;10.50;92.60;;;;;;5103106;28;20039;-80
2021/11/13 08:01:55;;;;;;;2.40;1.50;;;10.50;92.60;;;;;;5053837;28;20053;-80
2021/11/13 08:04:21;;;;;;;2.58;1.45;;;10.40;92.50;;;;;;5018578;28;20046;-80
2021/11/13 08:06:47;;;;;;;2.25;1.40;;;10.50;92.50;;;;;;4976324;28;20133;-80
2021/11/13 08:09:13;;;;;;;2.28;1.27;;;10.50;92.50;;;;;;4928239;29;20068;-80
2021/11/13 08:11:44;;;;;;;1.77;1.27;;;10.50;92.50;;;;;;4885552;29;20134;-80
2021/11/13 08:14:10;;;;;;;1.98;1.23;;;10.60;92.50;;;;;;4906573;29;20029;-80
2021/11/13 08:16:47;;;;;;;1.65;1.30;;;10.60;92.50;;;;;;4870109;29;20117;-80
2021/11/13 08:19:14;;;;;;;2.20;1.45;;;10.60;92.50;;;;;;4833964;29;20073;-79
2021/11/13 08:21:45;;;;;;;2.85;1.60;;;10.60;92.50;;;;;;4826823;29;20074;-79
2021/11/13 08:24:18;;;;;;;2.33;1.35;;;10.50;92.50;;;;;;4826684;29;20062;-79
2021/11/13 08:26:47;;;;;;;1.65;1.27;;;10.60;92.50;;;;;;4797996;29;20047;-79
2021/11/13 08:29:14;;;;;;;2.65;1.50;;;10.80;92.60;;;;;;4812834;29;20059;-79
2021/11/13 08:31:40;;;;;;;2.17;1.30;;;10.70;92.60;;;;;;4775738;29;20044;-79
2021/11/13 08:34:07;;;;;;;2.40;1.45;;;10.70;92.50;;;;;;4808668;29;20114;-80
2021/11/13 08:36:33;;;;;;;2.72;1.60;;;10.80;92.60;;;;;;4856660;29;20046;-80
2021/11/13 08:39:01;;;;;;;2.67;1.63;;;10.80;92.50;;;;;;4815783;29;20659;-79
2021/11/13 08:41:29;;;;;;;2.13;1.40;;;10.80;92.50;;;;;;4885065;29;20566;-79
2021/11/13 08:43:56;;;;;;;2.58;1.60;;;10.80;92.50;;;;;;4850099;29;20066;-79
2021/11/13 08:46:22;;;;;;;2.65;1.73;;;11.00;92.50;;;;;;4860003;29;20054;-80
2021/11/13 08:48:48;;;;;;;2.85;1.63;;;10.90;92.50;;;;;;4843216;29;20117;-80
2021/11/13 08:51:14;;;;;;;2.53;1.70;;;10.90;92.50;;;;;;4879261;29;20037;-79
2021/11/13 08:53:41;;;;;;;3.03;1.90;;;10.90;92.40;;;;;;4901155;29;20075;-79
2021/11/13 08:56:07;;;;;;;2.92;1.88;;;10.90;92.50;;;;;;4918598;29;20060;-79
2021/11/13 08:58:33;;;;;;;2.83;1.70;;;10.90;92.40;;;;;;4865201;29;20110;-79
2021/11/13 09:01:04;;;;;;;3.05;1.70;;;10.90;92.50;;;;;;4896574;29;20070;-78
2021/11/13 09:03:34;;;;;;;3.45;1.90;;;11.10;92.50;;;;;;4928001;29;20070;-79
2021/11/13 09:06:03;;;;;;;3.13;1.95;;;11.00;92.50;;;;;;4950353;29;20047;-80
2021/11/13 09:08:30;;;;;;;3.05;1.75;;;11.00;92.40;;;;;;4885748;29;20067;-80
2021/11/13 09:15:02;;;;;;;2.33;1.55;;;11.10;92.40;;;;;;4949129;28;20084;-84
2021/11/13 09:17:28;;;;;;;2.50;1.60;;;11.10;92.40;;;;;;4959370;28;20039;-82
2021/11/13 09:19:54;;;;;;;2.75;1.80;;;11.20;92.40;;;;;;4936978;28;20087;-82
2021/11/13 09:22:30;;;;;;;3.92;1.90;;;11.20;92.40;;;;;;4931448;29;20043;-82
2021/11/13 09:24:56;;;;;;;2.65;1.65;;;11.20;92.40;;;;;;4899671;29;20093;-82
2021/11/13 09:27:23;;;;;;;3.17;1.80;;;11.20;92.40;;;;;;4916484;29;20138;-82
2021/11/13 09:29:49;;;;;;;2.75;1.60;;;11.20;92.40;;;;;;4970960;28;20047;-84
2021/11/13 09:32:14;;;;;;;2.78;1.70;;;11.20;92.40;;;;;;4963799;28;20057;-82
2021/11/13 09:34:40;;;;;;;3.97;1.83;;;11.30;92.50;;;;;;4957474;28;20054;-82
2021/11/13 09:37:06;;;;;;;2.88;1.70;;;11.30;92.40;;;;;;4995645;28;20046;-82
2021/11/13 09:39:32;;;;;;;3.00;1.63;;;11.30;92.40;;;;;;4993242;28;20141;-79
2021/11/13 09:42:01;;;;;;;2.53;1.55;;;11.40;92.40;;;;;;5016559;28;20041;-80
2021/11/13 09:44:27;;;;;;;2.80;1.60;;;11.40;92.40;;;;;;5038698;28;20481;-79
2021/11/13 09:46:59;;;;;;;3.00;1.92;;;11.40;92.40;;;;;;5051767;28;20056;-80
2021/11/13 09:49:28;;;;;;;2.63;1.77;;;11.40;92.40;;;;;;5034625;28;20037;-80
2021/11/13 09:51:55;;;;;;;2.90;1.70;;;11.50;92.50;;;;;;5018261;28;20515;-80
2021/11/13 09:54:21;;;;;;;2.45;1.77;;;11.50;92.50;;;;;;5101926;28;20051;-82
2021/11/13 09:56:50;;;;;;;2.78;1.60;;;11.50;92.40;;;;;;5128845;28;20498;-82
2021/11/13 09:59:16;;;;;;;3.03;1.70;;;11.50;92.40;;;;;;5043512;28;20052;-83
2021/11/13 10:01:42;;;;;;;1.70;1.30;;;11.50;92.40;;;;;;5029843;28;20017;-81
2021/11/13 10:04:08;;;;;;;2.55;1.50;;;11.50;92.40;;;;;;5049413;28;20051;-82
2021/11/13 10:06:33;;;;;;;2.17;1.30;;;11.60;92.50;;;;;;5058224;28;20045;-82
2021/11/13 10:08:59;;;;;;;1.98;1.38;;;11.50;92.40;;;;;;5026495;28;20098;-81
2021/11/13 10:11:27;;;;;;;2.58;1.40;;;11.50;92.50;;;;;;5027148;28;20499;-81
2021/11/13 10:13:57;;;;;;;2.20;1.30;;;11.50;92.50;;;;;;5041913;28;20041;-79
2021/11/13 10:16:35;;;;;;;2.80;1.35;;;11.60;92.50;;;;;;5042842;28;20073;-81
2021/11/13 10:19:09;;;;;;;1.90;1.30;;;11.60;92.60;;;;;;5043197;28;20029;-80
2021/11/13 10:21:40;;;;;;;1.30;0.95;;;11.60;92.60;;;;;;5039969;28;20060;-80
2021/11/13 10:24:20;;;;;;;2.10;1.40;;;11.60;92.60;;;;;;5057267;28;20495;-81
2021/11/13 10:26:48;;;;;;;1.33;0.88;;;11.60;92.60;;;;;;5036336;28;20145;-80
2021/11/13 10:29:18;;;;;;;1.23;1.10;;;11.60;92.60;;;;;;5042770;28;20072;-81
2021/11/13 10:31:49;;;;;;;1.15;1.05;;;11.70;92.60;;;;;;5098020;28;20070;-81
2021/11/13 10:34:19;;;;;;;1.88;1.13;;;11.70;92.60;;;;;;5097662;28;20050;-79
2021/11/13 10:36:49;;;;;;;2.03;1.23;;;11.70;92.60;;;;;;5081062;28;20047;-79
2021/11/13 10:39:20;;;;;;;1.73;1.30;;;11.70;92.60;;;;;;5095824;28;20042;-80
2021/11/13 10:41:51;;;;;;;1.58;1.13;;;11.80;92.60;;;;;;5078800;28;20035;-80
2021/11/13 10:44:25;;;;;;;2.15;1.15;;;11.80;92.70;;;;;;5114367;28;20095;-80
2021/11/13 10:47:31;;;;;;;1.58;1.10;;;11.80;92.60;;;;;;5066069;28;20036;-82
2021/11/13 10:50:15;;;;;;;1.33;1.02;;;11.80;92.60;;;;;;5115104;28;20039;-79
2021/11/13 10:52:42;;;;;;;1.42;0.85;;;11.90;92.50;;;;;;5098884;28;20036;-79
2021/11/13 10:55:17;;;;;;;1.50;0.98;;;12.00;92.60;;;;;;5097995;28;20035;-78
2021/11/13 10:57:43;;;;;;;1.42;1.05;;;11.90;92.60;;;;;;5080710;28;20047;-78
2021/11/13 11:00:14;;;;;;;1.35;0.85;;;12.10;92.50;;;;;;5097340;28;20039;-78
2021/11/13 11:02:40;;;;;;;1.23;0.88;;;12.20;92.60;;;;;;5095198;28;20868;-78
2021/11/13 11:05:16;;;;;;;2.38;1.30;;;12.10;92.50;;;;;;5079717;28;20027;-79
2021/11/13 11:07:42;;;;;;;0.88;0.75;;;12.10;92.50;;;;;;5115605;28;20065;-78
2021/11/13 11:10:13;;;;;;;1.25;0.80;;;12.10;92.50;;;;;;5115188;28;20477;-78
2021/11/13 11:12:40;;;;;;;1.67;0.80;;;12.20;92.50;;;;;;5114694;28;20047;-78
2021/11/13 11:15:11;;;;;;;1.85;1.10;;;12.20;92.50;;;;;;5096863;28;20039;-79
2021/11/13 11:17:37;;;;;;;0.97;0.87;;;12.20;92.80;;;;;;5097066;28;20039;-80
2021/11/13 11:20:17;;;;;;;1.52;0.90;;;12.30;92.50;;;;;;5096638;28;20111;-78
2021/11/13 11:22:44;;;;;;;1.20;0.83;;;12.30;92.50;;;;;;5115569;28;20047;-78
2021/11/13 11:25:12;;;;;;;1.95;0.90;;;12.30;92.50;;;;;;5096975;28;20313;-79
2021/11/13 11:27:41;;;;;;;1.73;0.98;;;12.40;92.40;;;;;;5080414;28;20051;-79
2021/11/13 11:30:13;;;;;;;1.20;0.80;;;12.40;92.40;;;;;;5079896;28;20047;-78
2021/11/13 11:32:46;;;;;;;;;;;12.50;92.40;;;;;;5078672;28;20405;-78
2021/11/13 11:35:23;;;;;;;2.53;1.65;;;12.50;92.40;;;;;;5096500;28;19934;-78
2021/11/13 11:37:54;;;;;;;1.35;1.10;;;12.40;92.40;;;;;;5094663;28;20044;-78
2021/11/13 11:40:24;;;;;;;3.22;1.50;;;12.40;92.40;;;;;;5113124;28;20050;-78
2021/11/13 11:42:50;;;;;;;1.60;1.13;;;12.40;92.40;;;;;;5096130;28;20035;-78
2021/11/13 11:45:20;;;;;;;1.52;1.15;;;12.40;92.40;;;;;;5080070;28;20043;-78
2021/11/13 11:47:49;;;;;;;2.03;1.27;;;12.50;92.40;;;;;;5114744;28;20047;-79
2021/11/13 11:50:17;;;;;;;2.10;1.20;;;12.50;92.40;;;;;;5062801;28;20043;-78
2021/11/13 11:52:44;;;;;;;1.52;1.15;;;12.60;92.40;;;;;;5096403;28;20039;-79
2021/11/13 11:55:13;;;;;;;2.25;1.40;;;12.60;92.30;;;;;;5096579;28;20130;-77
2021/11/13 11:57:42;;;;;;;1.75;1.17;;;12.60;92.30;;;;;;5114822;28;20047;-78
2021/11/13 12:00:14;;;;;;;1.02;0.93;;;12.60;92.30;;;;;;5096587;28;20401;-77
2021/11/13 12:02:45;;;;;;;1.25;1.10;;;12.60;92.30;;;;;;5113067;28;20125;-78
2021/11/13 12:05:16;;;;;;;1.58;1.10;;;12.70;92.30;;;;;;5079642;28;20481;-78
2021/11/13 12:07:43;;;;;;;2.80;1.30;;;12.80;92.30;;;;;;5078799;28;20460;-77
2021/11/13 12:10:14;;;;;;;1.77;1.17;;;12.80;92.30;;;;;;5096401;28;20045;-77
2021/11/13 12:12:59;;;;;;;2.30;1.23;;;12.80;92.20;;;;;;5094581;28;20040;-78
2021/11/13 12:15:25;;;;;;;3.03;1.40;;;12.90;92.20;;;;;;5098913;28;20079;-78
2021/11/13 12:17:52;;;;;;;1.15;1.00;;;13.00;92.10;;;;;;5079057;28;20040;-78
2021/11/13 12:20:26;;;;;;;1.05;0.95;;;13.00;92.00;;;;;;5114512;28;20052;-77
2021/11/13 12:22:59;;;;;;;1.10;1.00;;;13.10;92.00;;;;;;5113502;28;20104;-76
2021/11/13 12:25:30;;;;;;;1.10;1.00;;;13.10;92.00;;;;;;5112119;28;20043;-77
2021/11/13 12:28:16;;;;;;;;;;;13.10;91.90;;;;;;5114533;28;20055;-77
2021/11/13 12:30:46;;;;;;;1.10;0.77;;;13.20;92.00;;;;;;5113578;28;19915;-76
2021/11/13 12:33:40;;;;;;;0.70;0.70;;;13.20;92.00;;;;;;5096683;28;20043;-77
2021/11/13 12:36:12;;;;;;;0.98;0.85;;;13.10;92.00;;;;;;5099557;28;20043;-77
2021/11/13 12:38:45;;;;;;;0.70;0.60;;;13.10;91.90;;;;;;5113556;28;20071;-77
2021/11/13 12:41:21;;;;;;;1.35;0.90;;;13.10;92.00;;;;;;5095464;28;20046;-77
2021/11/13 12:44:00;;;;;;;0.90;0.70;;;13.10;92.00;;;;;;5079084;28;20054;-77
2021/11/13 12:46:29;;;;;;;1.35;1.00;;;13.10;92.00;;;;;;5113543;28;20043;-76
2021/11/13 12:49:22;;;;;;;1.20;0.80;;;13.20;92.10;;;;;;5113783;28;20028;-77
2021/11/13 12:52:10;;;;;;;1.08;0.70;;;13.20;92.00;;;;;;5113644;28;20046;-77
2021/11/13 12:54:41;;;;;;;1.05;0.80;;;13.20;92.00;;;;;;5064693;28;20071;-77
2021/11/13 12:57:10;;;;;;;0.85;0.75;;;13.30;92.00;;;;;;5062044;28;20101;-78
2021/11/13 12:59:40;;;;;;;0.80;0.77;;;13.20;91.90;;;;;;5113338;28;20705;-77